Time;durP1;ratioP1;P1;durP2;ratioP2;P2;SDS_P1;SDS_P2;PMS_P1;PMS_P2;Temp;Humidity;BMP_temperature;BMP_pressure;BME280_temperature;BME280_humidity;BME280_pressure;Samples;Min_cycle;Max_cycle;Signal;HPM_P1;HPM_P2
2022/10/15 00:00:07;;;;;;;5.03;2.05;;;;;;;;;;5007355;28;20029;-84
2022/10/15 00:02:33;;;;;;;4.05;1.77;;;;;;;;;;4990549;28;20332;-83
2022/10/15 00:04:58;;;;;;;3.70;1.73;;;;;;;;;;4990561;28;20026;-83
2022/10/15 00:07:24;;;;;;;5.40;1.80;;;;;;;;;;5007916;28;20026;-83
2022/10/15 00:09:49;;;;;;;7.00;1.95;;;;;;;;;;4990647;28;20060;-83
2022/10/15 00:12:15;;;;;;;4.68;1.88;;;;;;;;;;5007588;28;20030;-83
2022/10/15 00:14:40;;;;;;;4.88;1.60;;;;;;;;;;4990156;28;20230;-83
2022/10/15 00:17:06;;;;;;;4.63;1.65;;;;;;;;;;5006836;28;20030;-84
2022/10/15 00:19:31;;;;;;;3.92;1.63;;;;;;;;;;5006627;28;20030;-83
2022/10/15 00:21:57;;;;;;;4.32;1.70;;;;;;;;;;4990374;28;20022;-83
2022/10/15 00:24:22;;;;;;;5.15;1.40;;;;;;;;;;5007506;28;20034;-83
2022/10/15 00:26:48;;;;;;;4.40;1.67;;;;;;;;;;5007793;28;20026;-83
2022/10/15 00:29:13;;;;;;;4.00;1.60;;;;;;;;;;5007614;28;20031;-84
2022/10/15 00:31:38;;;;;;;4.85;1.40;;;;;;;;;;5006840;28;20022;-82
2022/10/15 00:34:04;;;;;;;5.95;1.75;;;;;;;;;;5005454;28;20038;-83
2022/10/15 00:36:32;;;;;;;6.20;1.95;;;;;;;;;;5007254;28;20073;-83
2022/10/15 00:38:58;;;;;;;4.82;1.80;;;;;;;;;;5007051;28;20033;-83
2022/10/15 00:41:29;;;;;;;4.28;1.67;;;;;;;;;;5006900;28;20041;-80
2022/10/15 00:43:58;;;;;;;5.43;1.67;;;;;;;;;;5006463;28;20347;-79
2022/10/15 00:46:44;;;;;;;3.70;1.63;;;;;;;;;;4989113;28;20332;-80
2022/10/15 00:49:17;;;;;;;4.53;1.58;;;;;;;;;;5005220;28;20030;-81
2022/10/15 00:51:56;;;;;;;3.88;1.60;;;;;;;;;;5006163;28;20026;-82
2022/10/15 00:54:23;;;;;;;4.40;1.80;;;;;;;;;;4988708;28;20056;-82
2022/10/15 00:56:49;;;;;;;4.20;1.48;;;;;;;;;;4989144;28;20298;-82
2022/10/15 00:59:17;;;;;;;4.90;1.67;;;;;;;;;;5006465;28;20029;-81
2022/10/15 01:01:43;;;;;;;3.58;1.58;;;;;;;;;;5006906;28;20027;-81
2022/10/15 01:04:09;;;;;;;3.50;1.45;;;;;;;;;;5006726;28;20066;-81
2022/10/15 01:06:35;;;;;;;6.53;1.60;;;;;;;;;;5006585;28;20022;-81
2022/10/15 01:09:01;;;;;;;3.47;1.70;;;;;;;;;;4989282;28;20034;-82
2022/10/15 01:11:26;;;;;;;3.55;1.40;;;;;;;;;;4988941;28;20042;-80
2022/10/15 01:14:07;;;;;;;5.10;1.70;;;;;;;;;;5000066;28;20378;-81
2022/10/15 01:16:51;;;;;;;;;;;;;;;;;;4996659;28;20387;-79
2022/10/15 01:19:40;;;;;;;4.22;1.35;;;;;;;;;;4996194;28;19921;-80
2022/10/15 01:22:14;;;;;;;3.45;1.30;;;;;;;;;;4978237;28;20081;-81
2022/10/15 01:24:58;;;;;;;4.72;1.42;;;;;;;;;;4978515;28;20042;-82
2022/10/15 01:27:26;;;;;;;4.72;1.40;;;;;;;;;;4978243;28;20106;-81
2022/10/15 01:30:13;;;;;;;5.00;1.75;;;;;;;;;;4995797;28;20537;-81
2022/10/15 01:33:03;;;;;;;2.95;1.30;;;;;;;;;;4995409;28;20108;-82
2022/10/15 01:35:41;;;;;;;2.85;1.52;;;;;;;;;;4978537;28;20046;-78
2022/10/15 01:38:33;;;;;;;4.53;1.42;;;;;;;;;;4977757;28;20122;-81
2022/10/15 01:41:23;;;;;;;3.58;1.65;;;;;;;;;;4995669;28;20097;-79
2022/10/15 01:44:11;;;;;;;4.03;1.50;;;;;;;;;;4995381;28;20026;-79
2022/10/15 01:46:50;;;;;;;4.32;1.60;;;;;;;;;;4995484;28;20034;-81
2022/10/15 01:49:24;;;;;;;4.10;1.48;;;;;;;;;;4995259;28;20026;-81
2022/10/15 01:51:52;;;;;;;8.90;1.70;;;;;;;;;;4995556;28;20022;-81
2022/10/15 01:54:19;;;;;;;3.28;1.40;;;;;;;;;;4995058;28;20026;-78
2022/10/15 01:56:50;;;;;;;4.40;1.60;;;;;;;;;;4995126;28;20023;-81
2022/10/15 01:59:20;;;;;;;2.55;1.50;;;;;;;;;;4977700;28;20022;-81
2022/10/15 02:01:46;;;;;;;5.00;1.75;;;;;;;;;;4977864;28;20022;-82
2022/10/15 02:04:23;;;;;;;5.38;1.40;;;;;;;;;;4994664;28;20038;-82
2022/10/15 02:07:00;;;;;;;3.20;1.50;;;;;;;;;;4994593;28;20025;-82
2022/10/15 02:09:34;;;;;;;3.33;1.45;;;;;;;;;;4994861;28;20030;-81
2022/10/15 02:12:22;;;;;;;3.35;1.48;;;;;;;;;;4994804;28;20355;-82
2022/10/15 02:15:04;;;;;;;3.17;1.50;;;;;;;;;;4994694;28;20454;-81
2022/10/15 02:17:45;;;;;;;5.90;1.50;;;;;;;;;;4977385;28;20035;-81
2022/10/15 02:20:13;;;;;;;3.92;1.42;;;;;;;;;;4977380;28;20022;-82
2022/10/15 02:22:54;;;;;;;3.00;1.40;;;;;;;;;;4994566;28;20053;-82
2022/10/15 02:25:22;;;;;;;4.15;1.50;;;;;;;;;;4994934;28;20076;-82
2022/10/15 02:27:51;;;;;;;3.25;1.40;;;;;;;;;;4976846;28;20034;-81
2022/10/15 02:30:17;;;;;;;3.08;1.30;;;;;;;;;;4994264;28;20097;-82
2022/10/15 02:32:47;;;;;;;4.38;1.40;;;;;;;;;;4994079;28;20497;-81
2022/10/15 02:35:13;;;;;;;3.63;1.58;;;;;;;;;;4976756;28;20442;-81
2022/10/15 02:37:43;;;;;;;3.60;1.40;;;;;;;;;;4999298;28;20313;-81
2022/10/15 02:40:09;;;;;;;5.18;1.50;;;;;;;;;;5004991;28;20014;-82
2022/10/15 02:42:34;;;;;;;4.18;1.50;;;;;;;;;;5004601;28;20082;-82
2022/10/15 02:45:00;;;;;;;4.97;1.50;;;;;;;;;;5004738;28;20022;-82
2022/10/15 02:47:25;;;;;;;4.65;1.52;;;;;;;;;;5005158;28;20073;-81
2022/10/15 02:49:50;;;;;;;4.38;1.70;;;;;;;;;;5004814;28;20269;-82
2022/10/15 02:52:16;;;;;;;2.88;1.30;;;;;;;;;;5004373;28;20049;-82
2022/10/15 02:54:42;;;;;;;5.22;1.40;;;;;;;;;;5004537;28;20034;-81
2022/10/15 02:57:07;;;;;;;5.60;1.30;;;;;;;;;;4986367;28;20317;-82
2022/10/15 02:59:33;;;;;;;4.85;1.35;;;;;;;;;;5004425;28;20026;-82
2022/10/15 03:02:01;;;;;;;4.60;1.40;;;;;;;;;;4986691;28;20098;-81
2022/10/15 03:04:27;;;;;;;4.20;1.38;;;;;;;;;;4986496;28;20316;-82
2022/10/15 03:06:52;;;;;;;3.85;1.50;;;;;;;;;;5005137;28;20026;-82
2022/10/15 03:09:18;;;;;;;3.53;1.27;;;;;;;;;;4987313;28;20034;-81
2022/10/15 03:11:43;;;;;;;4.32;1.30;;;;;;;;;;5004672;28;20037;-82
2022/10/15 03:14:09;;;;;;;3.67;1.40;;;;;;;;;;5004683;28;20088;-82
2022/10/15 03:16:34;;;;;;;3.65;1.40;;;;;;;;;;5004359;28;20018;-82
2022/10/15 03:18:59;;;;;;;3.53;1.42;;;;;;;;;;5004642;28;20010;-78
2022/10/15 03:21:25;;;;;;;2.33;1.20;;;;;;;;;;4987312;28;20105;-82
2022/10/15 03:23:50;;;;;;;3.45;1.60;;;;;;;;;;4986849;28;20128;-82
2022/10/15 03:26:15;;;;;;;3.20;1.45;;;;;;;;;;5004406;28;20026;-82
2022/10/15 03:28:41;;;;;;;3.15;1.30;;;;;;;;;;5004238;28;20034;-84
2022/10/15 03:31:06;;;;;;;4.40;1.40;;;;;;;;;;5004360;28;20046;-84
2022/10/15 03:33:32;;;;;;;4.18;1.25;;;;;;;;;;5004635;28;20041;-84
2022/10/15 03:35:57;;;;;;;4.18;1.50;;;;;;;;;;4987057;28;20073;-83
2022/10/15 03:38:23;;;;;;;3.97;1.27;;;;;;;;;;5004472;28;20113;-81
2022/10/15 03:40:48;;;;;;;2.88;1.20;;;;;;;;;;5004292;28;20118;-83
2022/10/15 03:43:14;;;;;;;5.18;1.20;;;;;;;;;;5003625;28;20222;-83
2022/10/15 03:45:40;;;;;;;5.32;1.40;;;;;;;;;;5004000;28;20093;-83
2022/10/15 03:48:05;;;;;;;3.97;1.38;;;;;;;;;;4986424;28;20034;-83
2022/10/15 03:50:31;;;;;;;3.60;1.20;;;;;;;;;;5004296;28;20026;-83
2022/10/15 03:52:56;;;;;;;3.95;1.55;;;;;;;;;;5003943;28;20022;-83
2022/10/15 03:55:21;;;;;;;5.15;1.30;;;;;;;;;;5004427;28;20350;-83
2022/10/15 03:57:47;;;;;;;3.00;1.30;;;;;;;;;;5003674;28;20080;-83
2022/10/15 04:00:13;;;;;;;3.00;1.20;;;;;;;;;;4986229;28;20026;-83
2022/10/15 04:02:39;;;;;;;3.67;1.48;;;;;;;;;;5004012;28;20042;-84
2022/10/15 04:05:04;;;;;;;2.42;1.15;;;;;;;;;;5003149;28;20273;-84
2022/10/15 04:07:30;;;;;;;3.95;1.30;;;;;;;;;;5004059;28;20302;-83
2022/10/15 04:09:55;;;;;;;4.75;1.27;;;;;;;;;;4988269;28;20027;-83
2022/10/15 04:12:21;;;;;;;3.63;1.40;;;;;;;;;;4989987;28;20369;-83
2022/10/15 04:14:46;;;;;;;3.03;1.20;;;;;;;;;;5007564;28;20364;-83
2022/10/15 04:17:11;;;;;;;3.10;1.40;;;;;;;;;;4989718;28;20030;-83
2022/10/15 04:19:37;;;;;;;3.33;1.40;;;;;;;;;;5007021;28;20045;-83
2022/10/15 04:22:03;;;;;;;2.28;1.25;;;;;;;;;;5007050;28;20034;-83
2022/10/15 04:24:28;;;;;;;3.72;1.48;;;;;;;;;;5007456;28;20030;-84
2022/10/15 04:26:54;;;;;;;2.85;1.35;;;;;;;;;;5006981;28;20198;-83
2022/10/15 04:29:19;;;;;;;3.28;1.25;;;;;;;;;;5007335;28;20041;-83
2022/10/15 04:31:44;;;;;;;5.03;1.50;;;;;;;;;;5007347;28;20027;-83
2022/10/15 04:34:10;;;;;;;4.95;1.50;;;;;;;;;;5007408;28;20102;-84
2022/10/15 04:36:36;;;;;;;3.75;1.60;;;;;;;;;;5007135;28;20098;-83
2022/10/15 04:39:02;;;;;;;3.85;1.40;;;;;;;;;;5006964;28;20072;-83
2022/10/15 04:41:27;;;;;;;4.70;1.42;;;;;;;;;;5007034;28;20032;-84
2022/10/15 04:43:53;;;;;;;3.13;1.23;;;;;;;;;;4989409;28;20053;-83
2022/10/15 04:46:21;;;;;;;2.67;1.20;;;;;;;;;;5007274;28;20332;-83
2022/10/15 04:48:46;;;;;;;3.20;1.20;;;;;;;;;;5006986;28;20217;-83
2022/10/15 04:51:14;;;;;;;4.93;1.65;;;;;;;;;;5006978;28;20333;-84
2022/10/15 04:53:40;;;;;;;2.50;1.20;;;;;;;;;;5006945;28;20072;-84
2022/10/15 04:56:09;;;;;;;2.95;1.23;;;;;;;;;;5007178;28;20298;-84
2022/10/15 04:58:35;;;;;;;2.60;1.30;;;;;;;;;;5006722;28;20038;-84
2022/10/15 05:01:03;;;;;;;3.20;1.50;;;;;;;;;;4989529;28;20053;-83
2022/10/15 05:03:29;;;;;;;3.63;1.17;;;;;;;;;;5006300;28;20081;-84
2022/10/15 05:06:06;;;;;;;3.72;1.38;;;;;;;;;;5006466;28;20085;-82
2022/10/15 05:08:33;;;;;;;3.63;1.40;;;;;;;;;;5006386;28;20356;-83
2022/10/15 05:11:00;;;;;;;3.33;1.33;;;;;;;;;;5006489;28;20050;-84
2022/10/15 05:13:26;;;;;;;3.00;1.40;;;;;;;;;;5006631;28;20046;-83
2022/10/15 05:15:51;;;;;;;3.15;1.30;;;;;;;;;;5006583;28;20018;-84
2022/10/15 05:18:17;;;;;;;3.22;1.30;;;;;;;;;;5006583;28;20332;-83
2022/10/15 05:20:42;;;;;;;4.90;1.40;;;;;;;;;;5006363;28;20102;-84
2022/10/15 05:23:07;;;;;;;3.78;1.38;;;;;;;;;;5006620;28;20014;-84
2022/10/15 05:25:33;;;;;;;2.72;1.20;;;;;;;;;;5006622;28;20333;-83
2022/10/15 05:27:58;;;;;;;3.55;1.40;;;;;;;;;;5005792;28;20041;-83
2022/10/15 05:30:23;;;;;;;4.40;1.50;;;;;;;;;;4988396;28;20408;-81
2022/10/15 05:32:53;;;;;;;4.95;1.60;;;;;;;;;;5005842;28;20033;-83
2022/10/15 05:35:19;;;;;;;2.97;1.13;;;;;;;;;;5005674;28;20051;-83
2022/10/15 05:37:44;;;;;;;3.40;1.38;;;;;;;;;;5006247;28;20261;-84
2022/10/15 05:40:10;;;;;;;2.15;1.20;;;;;;;;;;4988995;28;20033;-84
2022/10/15 05:42:36;;;;;;;4.63;1.50;;;;;;;;;;5005502;28;20030;-83
2022/10/15 05:45:01;;;;;;;2.50;1.30;;;;;;;;;;5005361;28;20022;-83
2022/10/15 05:47:27;;;;;;;3.03;1.30;;;;;;;;;;5005871;28;20034;-84
2022/10/15 05:49:52;;;;;;;2.67;1.40;;;;;;;;;;5005212;28;20108;-84
2022/10/15 05:52:17;;;;;;;3.58;1.40;;;;;;;;;;5005783;28;20222;-84
2022/10/15 05:54:43;;;;;;;4.28;1.30;;;;;;;;;;5005366;28;20026;-84
2022/10/15 05:57:08;;;;;;;2.38;1.48;;;;;;;;;;5005341;28;20026;-84
2022/10/15 05:59:33;;;;;;;2.50;1.30;;;;;;;;;;5005560;28;20312;-85
2022/10/15 06:01:59;;;;;;;4.18;1.30;;;;;;;;;;5005658;28;20093;-84
2022/10/15 06:04:24;;;;;;;4.50;1.38;;;;;;;;;;5005659;28;20028;-84
2022/10/15 06:06:50;;;;;;;3.97;1.50;;;;;;;;;;4987969;28;20053;-84
2022/10/15 06:09:15;;;;;;;3.15;1.45;;;;;;;;;;5005587;28;20022;-84
2022/10/15 06:11:40;;;;;;;3.03;1.13;;;;;;;;;;4988261;28;20030;-84
2022/10/15 06:14:06;;;;;;;2.55;1.30;;;;;;;;;;5005292;28;20030;-84
2022/10/15 06:16:32;;;;;;;3.65;1.48;;;;;;;;;;5004354;28;20037;-80
2022/10/15 06:18:57;;;;;;;6.00;1.50;;;;;;;;;;5005157;28;20054;-83
2022/10/15 06:21:23;;;;;;;2.08;1.20;;;;;;;;;;4997772;28;20041;-81
2022/10/15 06:23:48;;;;;;;2.58;1.40;;;;;;;;;;5002778;28;20092;-81
2022/10/15 06:26:14;;;;;;;4.80;1.42;;;;;;;;;;4996070;28;20023;-84
2022/10/15 06:28:40;;;;;;;3.15;1.40;;;;;;;;;;4998105;28;20054;-83
2022/10/15 06:31:06;;;;;;;4.00;1.45;;;;;;;;;;5001237;28;20033;-80
2022/10/15 06:33:33;;;;;;;6.20;2.20;;;;;;;;;;5003806;28;20038;-81
2022/10/15 06:36:04;;;;;;;5.60;2.13;;;;;;;;;;5002385;28;20520;-82
2022/10/15 06:38:29;;;;;;;5.90;2.28;;;;;;;;;;4996863;28;20050;-80
2022/10/15 06:40:55;;;;;;;4.07;1.77;;;;;;;;;;4998851;28;20030;-78
2022/10/15 06:43:20;;;;;;;5.57;1.85;;;;;;;;;;4999089;28;20478;-76
2022/10/15 06:45:46;;;;;;;4.22;1.70;;;;;;;;;;4998063;28;20026;-76
2022/10/15 06:48:11;;;;;;;3.13;1.77;;;;;;;;;;4994335;28;20474;-76
2022/10/15 06:50:38;;;;;;;6.60;2.00;;;;;;;;;;4993989;28;20043;-76
2022/10/15 06:53:03;;;;;;;4.38;1.65;;;;;;;;;;4994021;28;20033;-76
2022/10/15 06:55:29;;;;;;;4.25;1.55;;;;;;;;;;4976472;28;20026;-76
2022/10/15 06:57:57;;;;;;;3.60;1.70;;;;;;;;;;4993989;28;20370;-81
2022/10/15 07:00:23;;;;;;;3.10;1.48;;;;;;;;;;4993877;28;20019;-76
2022/10/15 07:02:49;;;;;;;4.07;1.60;;;;;;;;;;4993844;28;20027;-77
2022/10/15 07:05:15;;;;;;;3.17;1.63;;;;;;;;;;4994182;28;20041;-77
2022/10/15 07:07:41;;;;;;;2.28;1.30;;;;;;;;;;4993683;28;20054;-76
2022/10/15 07:10:07;;;;;;;3.30;1.60;;;;;;;;;;4993746;28;20133;-77
2022/10/15 07:12:33;;;;;;;2.47;1.40;;;;;;;;;;4993585;28;20050;-76
2022/10/15 07:14:58;;;;;;;3.25;1.55;;;;;;;;;;4976004;28;20069;-76
2022/10/15 07:17:24;;;;;;;4.20;1.67;;;;;;;;;;4993787;28;20054;-76
2022/10/15 07:19:49;;;;;;;2.33;1.30;;;;;;;;;;4993874;28;20018;-75
2022/10/15 07:22:18;;;;;;;3.47;1.60;;;;;;;;;;4993793;28;20073;-77
2022/10/15 07:24:43;;;;;;;3.95;1.48;;;;;;;;;;4976814;28;20383;-78
2022/10/15 07:27:08;;;;;;;3.25;1.60;;;;;;;;;;4993640;28;20053;-78
2022/10/15 07:29:34;;;;;;;3.92;1.70;;;;;;;;;;4993737;28;20029;-78
2022/10/15 07:31:59;;;;;;;4.57;1.77;;;;;;;;;;4993661;28;20081;-78
2022/10/15 07:34:25;;;;;;;2.03;1.30;;;;;;;;;;4993451;28;20130;-75
2022/10/15 07:36:50;;;;;;;5.35;1.50;;;;;;;;;;4993530;28;20022;-78
2022/10/15 07:39:18;;;;;;;3.60;1.50;;;;;;;;;;4993579;28;20058;-81
2022/10/15 07:41:44;;;;;;;3.35;1.25;;;;;;;;;;4993670;28;20022;-79
2022/10/15 07:44:10;;;;;;;4.75;1.77;;;;;;;;;;4979024;28;20054;-74
2022/10/15 07:46:35;;;;;;;4.57;1.52;;;;;;;;;;4997098;28;20053;-79
2022/10/15 07:49:01;;;;;;;4.53;1.73;;;;;;;;;;4997203;28;20026;-81
2022/10/15 07:51:26;;;;;;;5.30;1.55;;;;;;;;;;4996794;28;20461;-84
2022/10/15 07:53:51;;;;;;;5.75;1.40;;;;;;;;;;4996833;28;20022;-83
2022/10/15 07:56:18;;;;;;;5.40;1.67;;;;;;;;;;4996946;28;20018;-79
2022/10/15 07:58:50;;;;;;;4.88;1.40;;;;;;;;;;4997182;28;20026;-76
2022/10/15 08:01:16;;;;;;;3.50;1.50;;;;;;;;;;4998098;28;20026;-76
2022/10/15 08:03:42;;;;;;;4.72;1.48;;;;;;;;;;4998419;28;20018;-78
2022/10/15 08:06:08;;;;;;;3.28;1.25;;;;;;;;;;4999716;28;20025;-77
2022/10/15 08:08:35;;;;;;;4.80;1.20;;;;;;;;;;4996668;28;20049;-78
2022/10/15 08:11:05;;;;;;;2.95;1.33;;;;;;;;;;4999654;28;20081;-76
2022/10/15 08:13:31;;;;;;;3.83;1.10;;;;;;;;;;5003662;28;20114;-75
2022/10/15 08:15:56;;;;;;;5.22;1.45;;;;;;;;;;5003565;28;20034;-77
2022/10/15 08:18:22;;;;;;;3.95;1.40;;;;;;;;;;5007262;28;20022;-77
2022/10/15 08:20:47;;;;;;;7.00;1.67;;;;;;;;;;5007035;28;20026;-76
2022/10/15 08:23:16;;;;;;;3.53;1.30;;;;;;;;;;4989767;28;20355;-78
2022/10/15 08:25:42;;;;;;;5.10;1.27;;;;;;;;;;5005799;28;20034;-77
2022/10/15 08:28:10;;;;;;;3.25;1.52;;;;;;;;;;4982124;28;20031;-78
2022/10/15 08:30:37;;;;;;;3.90;1.20;;;;;;;;;;5001675;28;20093;-79
2022/10/15 08:33:02;;;;;;;3.50;1.33;;;;;;;;;;4997776;28;20065;-77
2022/10/15 08:35:28;;;;;;;3.35;1.05;;;;;;;;;;5001385;28;20045;-80
2022/10/15 08:37:54;;;;;;;7.57;1.20;;;;;;;;;;4997849;28;20018;-82
2022/10/15 08:40:20;;;;;;;2.15;1.05;;;;;;;;;;4997952;28;20018;-78
2022/10/15 08:42:47;;;;;;;2.78;1.05;;;;;;;;;;4978908;28;20027;-78
2022/10/15 08:45:22;;;;;;;3.78;1.23;;;;;;;;;;4996629;28;20033;-77
2022/10/15 08:47:57;;;;;;;3.80;1.20;;;;;;;;;;4996519;28;20022;-77
2022/10/15 08:50:56;;;;;;;4.13;1.30;;;;;;;;;;4996527;28;20037;-84
2022/10/15 08:53:23;;;;;;;3.90;1.15;;;;;;;;;;4996194;28;20475;-84
2022/10/15 08:55:52;;;;;;;3.10;1.10;;;;;;;;;;4995166;28;20030;-76
2022/10/15 08:58:55;;;;;;;3.25;1.25;;;;;;;;;;4996074;28;20386;-77
2022/10/15 09:01:36;;;;;;;2.88;1.00;;;;;;;;;;4995979;28;20039;-77
2022/10/15 09:04:15;;;;;;;4.20;1.00;;;;;;;;;;4978510;28;20379;-78
2022/10/15 09:06:41;;;;;;;2.35;1.00;;;;;;;;;;4995706;28;20053;-77
2022/10/15 09:09:26;;;;;;;4.45;1.10;;;;;;;;;;5002749;28;20225;-79
2022/10/15 09:12:19;;;;;;;3.97;1.30;;;;;;;;;;5006534;28;20018;-77
2022/10/15 09:14:46;;;;;;;2.72;1.17;;;;;;;;;;5000167;28;20113;-78
2022/10/15 09:17:23;;;;;;;4.32;1.10;;;;;;;;;;5003936;28;20034;-81
2022/10/15 09:19:51;;;;;;;3.65;1.10;;;;;;;;;;4999082;28;20066;-79
2022/10/15 09:22:22;;;;;;;4.45;1.20;;;;;;;;;;5001353;28;20094;-74
2022/10/15 09:24:47;;;;;;;3.30;1.15;;;;;;;;;;4982653;28;20037;-75
2022/10/15 09:27:34;;;;;;;2.20;1.00;;;;;;;;;;5000494;28;20026;-76
2022/10/15 09:30:48;;;;;;;1.77;1.00;;;;;;;;;;5004764;28;20034;-76
2022/10/15 09:33:35;;;;;;;2.95;0.95;;;;;;;;;;4890280;29;20037;-79
2022/10/15 09:36:25;;;;;;;2.72;1.15;;;;;;;;;;4982512;28;20046;-81
2022/10/15 09:39:23;;;;;;;3.00;1.00;;;;;;;;;;5003528;28;20085;-76
2022/10/15 09:42:03;;;;;;;2.33;0.90;;;;;;;;;;4985054;28;20101;-78
2022/10/15 09:44:36;;;;;;;2.60;1.00;;;;;;;;;;5003169;28;20038;-82
2022/10/15 09:47:14;;;;;;;4.13;1.00;;;;;;;;;;4996617;28;20029;-79
2022/10/15 09:49:39;;;;;;;4.18;1.00;;;;;;;;;;4977569;28;20045;-79
2022/10/15 09:52:17;;;;;;;3.20;1.00;;;;;;;;;;4995281;28;20038;-78
2022/10/15 09:55:01;;;;;;;4.35;0.95;;;;;;;;;;4995638;28;20034;-78
2022/10/15 09:57:29;;;;;;;5.40;1.00;;;;;;;;;;4995303;28;20034;-77
2022/10/15 10:00:00;;;;;;;2.58;0.93;;;;;;;;;;4995004;28;20027;-80
2022/10/15 10:02:27;;;;;;;2.53;0.90;;;;;;;;;;4995885;28;20101;-79
2022/10/15 10:04:53;;;;;;;3.30;1.10;;;;;;;;;;5011307;28;20089;-79
2022/10/15 10:07:33;;;;;;;6.20;1.05;;;;;;;;;;5005399;28;20026;-79
2022/10/15 10:10:21;;;;;;;2.50;1.00;;;;;;;;;;4994854;28;20019;-79
2022/10/15 10:12:47;;;;;;;1.40;0.90;;;;;;;;;;4994756;28;20030;-81
2022/10/15 10:15:33;;;;;;;2.05;0.88;;;;;;;;;;4994341;28;20038;-81
2022/10/15 10:17:59;;;;;;;2.83;1.00;;;;;;;;;;4994501;28;20041;-80
2022/10/15 10:20:27;;;;;;;6.18;1.20;;;;;;;;;;4994356;28;20057;-81
2022/10/15 10:23:00;;;;;;;3.40;1.33;;;;;;;;;;4977081;28;20030;-80
2022/10/15 10:25:26;;;;;;;2.72;1.10;;;;;;;;;;4994856;28;20481;-79
2022/10/15 10:28:01;;;;;;;2.58;1.40;;;;;;;;;;4994109;28;20089;-79
2022/10/15 10:30:31;;;;;;;5.15;1.60;;;;;;;;;;4994849;28;20085;-80
2022/10/15 10:32:59;;;;;;;3.05;1.40;;;;;;;;;;4993853;28;20030;-80
2022/10/15 10:35:33;;;;;;;3.55;1.30;;;;;;;;;;4976388;28;20050;-78
2022/10/15 10:37:59;;;;;;;2.35;1.02;;;;;;;;;;4976065;28;20035;-79
2022/10/15 10:40:33;;;;;;;3.03;1.20;;;;;;;;;;4993570;28;20037;-80
2022/10/15 10:43:16;;;;;;;2.80;1.23;;;;;;;;;;4993644;28;20433;-80
2022/10/15 10:45:56;;;;;;;3.45;1.10;;;;;;;;;;4994103;28;20509;-79
2022/10/15 10:48:39;;;;;;;3.72;1.27;;;;;;;;;;4994163;28;20045;-79
2022/10/15 10:51:19;;;;;;;2.08;1.30;;;;;;;;;;4994117;28;20026;-79
2022/10/15 10:53:53;;;;;;;3.90;1.50;;;;;;;;;;4994072;28;20035;-78
2022/10/15 10:56:28;;;;;;;4.35;1.60;;;;;;;;;;4977061;28;20034;-78
2022/10/15 10:59:16;;;;;;;4.00;1.35;;;;;;;;;;4994092;28;20034;-79
2022/10/15 11:01:41;;;;;;;2.03;1.20;;;;;;;;;;4977350;28;20120;-78
2022/10/15 11:04:23;;;;;;;3.97;1.58;;;;;;;;;;4993770;28;20421;-78
2022/10/15 11:06:54;;;;;;;5.22;1.73;;;;;;;;;;4993863;28;20528;-79
2022/10/15 11:09:41;;;;;;;2.35;1.38;;;;;;;;;;4976385;28;20037;-79
2022/10/15 11:12:24;;;;;;;3.83;1.40;;;;;;;;;;4993759;28;20042;-79
2022/10/15 11:14:54;;;;;;;2.47;1.23;;;;;;;;;;4993363;28;20080;-79
2022/10/15 11:17:43;;;;;;;3.72;1.20;;;;;;;;;;4994046;28;20101;-78
2022/10/15 11:20:26;;;;;;;3.15;1.42;;;;;;;;;;4952440;28;20482;-77
2022/10/15 11:23:02;;;;;;;4.20;1.23;;;;;;;;;;4997606;28;20057;-79
2022/10/15 11:25:42;;;;;;;3.13;1.20;;;;;;;;;;4997514;28;20089;-80
2022/10/15 11:28:28;;;;;;;3.47;1.30;;;;;;;;;;4997627;28;20050;-80
2022/10/15 11:30:58;;;;;;;2.55;1.20;;;;;;;;;;4997434;28;20058;-77
2022/10/15 11:33:45;;;;;;;2.30;1.15;;;;;;;;;;4979928;28;20036;-78
2022/10/15 11:36:29;;;;;;;2.00;1.25;;;;;;;;;;4997072;28;20046;-79
2022/10/15 11:39:16;;;;;;;3.47;1.48;;;;;;;;;;4979669;28;20122;-76
2022/10/15 11:42:11;;;;;;;2.92;1.15;;;;;;;;;;4997198;28;20383;-78
2022/10/15 11:45:05;;;;;;;2.40;1.20;;;;;;;;;;4997115;28;20026;-77
2022/10/15 11:47:36;;;;;;;5.15;1.25;;;;;;;;;;4979849;28;20413;-79
2022/10/15 11:50:26;;;;;;;4.95;1.42;;;;;;;;;;4997147;28;20098;-79
2022/10/15 11:52:58;;;;;;;3.80;1.20;;;;;;;;;;4979497;28;20035;-78
2022/10/15 11:55:35;;;;;;;3.78;1.40;;;;;;;;;;4996963;28;20065;-79
2022/10/15 11:58:05;;;;;;;2.38;1.30;;;;;;;;;;4997198;28;20026;-79
2022/10/15 12:00:35;;;;;;;2.53;1.50;;;;;;;;;;4997050;28;20097;-78
2022/10/15 12:03:26;;;;;;;6.35;1.42;;;;;;;;;;4996971;28;20062;-79
2022/10/15 12:05:59;;;;;;;4.53;1.40;;;;;;;;;;4996854;28;20041;-79
2022/10/15 12:08:33;;;;;;;4.50;1.30;;;;;;;;;;4996599;28;20109;-76
2022/10/15 12:11:14;;;;;;;2.40;1.20;;;;;;;;;;4997047;28;20474;-78
2022/10/15 12:13:50;;;;;;;3.00;1.33;;;;;;;;;;4964138;28;20053;-79
2022/10/15 12:16:21;;;;;;;5.45;1.50;;;;;;;;;;4996504;28;20033;-80
2022/10/15 12:19:06;;;;;;;4.43;1.30;;;;;;;;;;4979112;28;20451;-75
2022/10/15 12:21:37;;;;;;;3.20;1.17;;;;;;;;;;4996787;28;20105;-76
2022/10/15 12:24:09;;;;;;;3.38;1.33;;;;;;;;;;4996534;28;20037;-79
2022/10/15 12:26:35;;;;;;;4.10;1.30;;;;;;;;;;4996888;28;20092;-78
2022/10/15 12:29:04;;;;;;;4.28;1.30;;;;;;;;;;4978268;28;20035;-74
2022/10/15 12:31:50;;;;;;;4.05;1.42;;;;;;;;;;4978528;28;20030;-79
2022/10/15 12:34:42;;;;;;;6.57;1.40;;;;;;;;;;4995909;28;20040;-78
2022/10/15 12:37:18;;;;;;;4.75;1.40;;;;;;;;;;4992117;28;20070;-80
2022/10/15 12:39:44;;;;;;;2.25;1.15;;;;;;;;;;4996381;28;20121;-79
2022/10/15 12:42:21;;;;;;;3.58;1.55;;;;;;;;;;4996054;28;20034;-80
2022/10/15 12:44:50;;;;;;;5.18;1.50;;;;;;;;;;4979053;28;20053;-79
2022/10/15 12:47:46;;;;;;;3.35;1.40;;;;;;;;;;4995891;28;20029;-80
2022/10/15 12:50:23;;;;;;;3.90;1.55;;;;;;;;;;4978303;28;20030;-80
2022/10/15 12:53:24;;;;;;;2.97;1.45;;;;;;;;;;4978216;28;20065;-80
2022/10/15 12:56:08;;;;;;;4.13;1.50;;;;;;;;;;4978150;28;20089;-81
2022/10/15 12:58:35;;;;;;;5.50;1.50;;;;;;;;;;4996055;28;20033;-80
2022/10/15 13:01:28;;;;;;;5.70;1.70;;;;;;;;;;4978143;28;20057;-80
2022/10/15 13:03:56;;;;;;;4.82;1.50;;;;;;;;;;4936367;28;20038;-81
2022/10/15 13:06:21;;;;;;;4.90;1.60;;;;;;;;;;4995681;28;20053;-80
2022/10/15 13:08:49;;;;;;;4.38;1.70;;;;;;;;;;4995544;28;20490;-80
2022/10/15 13:11:20;;;;;;;3.63;2.00;;;;;;;;;;4978070;28;20117;-80
2022/10/15 13:13:45;;;;;;;;;;;;;;;;;;4978605;28;20429;-80
2022/10/15 13:16:12;;;;;;;4.78;1.70;;;;;;;;;;4978357;28;19929;-80
2022/10/15 13:18:40;;;;;;;4.13;1.83;;;;;;;;;;4995713;28;20034;-80
2022/10/15 13:21:05;;;;;;;5.60;1.85;;;;;;;;;;4978355;28;20478;-79
2022/10/15 13:23:33;;;;;;;3.47;1.92;;;;;;;;;;4995648;28;20038;-80
2022/10/15 13:26:12;;;;;;;4.40;1.85;;;;;;;;;;4977955;28;20034;-80
2022/10/15 13:28:40;;;;;;;4.05;1.85;;;;;;;;;;4995312;28;20037;-79
2022/10/15 13:31:30;;;;;;;4.45;1.80;;;;;;;;;;4978031;28;20046;-80
2022/10/15 13:34:23;;;;;;;4.80;1.90;;;;;;;;;;4995138;28;20057;-80
2022/10/15 13:36:50;;;;;;;5.97;2.00;;;;;;;;;;4975681;28;20090;-79
2022/10/15 13:39:21;;;;;;;5.68;2.17;;;;;;;;;;4975625;28;20034;-78
2022/10/15 13:41:47;;;;;;;3.47;1.85;;;;;;;;;;4957832;28;20515;-78
2022/10/15 13:44:23;;;;;;;5.20;1.98;;;;;;;;;;4975436;28;20074;-79
2022/10/15 13:46:49;;;;;;;5.57;2.10;;;;;;;;;;4975774;28;20106;-77
2022/10/15 13:49:16;;;;;;;4.60;1.85;;;;;;;;;;4976212;28;20049;-80
2022/10/15 13:51:44;;;;;;;3.95;1.92;;;;;;;;;;4975403;28;20027;-79
2022/10/15 13:54:16;;;;;;;3.95;1.90;;;;;;;;;;4958005;28;20391;-78
2022/10/15 13:56:45;;;;;;;4.15;2.00;;;;;;;;;;4975336;28;20034;-79
2022/10/15 13:59:18;;;;;;;4.72;2.03;;;;;;;;;;4975398;28;20023;-78
2022/10/15 14:01:50;;;;;;;6.43;2.17;;;;;;;;;;4975127;28;20496;-80
2022/10/15 14:04:19;;;;;;;6.45;2.00;;;;;;;;;;4957992;28;20081;-79
2022/10/15 14:07:01;;;;;;;4.55;2.10;;;;;;;;;;4957976;28;20051;-79
2022/10/15 14:09:32;;;;;;;6.05;2.05;;;;;;;;;;4975559;28;20034;-80
2022/10/15 14:11:58;;;;;;;6.93;2.20;;;;;;;;;;4958258;28;20023;-77
2022/10/15 14:14:45;;;;;;;6.22;2.15;;;;;;;;;;4957693;28;20425;-79
2022/10/15 14:17:24;;;;;;;3.13;2.00;;;;;;;;;;4975307;28;20074;-80
2022/10/15 14:19:57;;;;;;;4.75;2.00;;;;;;;;;;4975044;28;20027;-80
2022/10/15 14:22:25;;;;;;;4.28;2.13;;;;;;;;;;4974929;28;20062;-80
2022/10/15 14:24:52;;;;;;;5.55;2.10;;;;;;;;;;4957456;28;20030;-80
2022/10/15 14:27:21;;;;;;;3.33;1.85;;;;;;;;;;4974988;28;20026;-80
2022/10/15 14:29:49;;;;;;;4.63;1.88;;;;;;;;;;4974746;28;20030;-80
2022/10/15 14:32:30;;;;;;;4.30;2.20;;;;;;;;;;4974914;28;20107;-79
2022/10/15 14:34:56;;;;;;;3.63;2.20;;;;;;;;;;4982300;28;20056;-79
2022/10/15 14:37:34;;;;;;;4.38;1.98;;;;;;;;;;4994355;28;20113;-78
2022/10/15 14:40:18;;;;;;;3.30;1.90;;;;;;;;;;4994198;28;20022;-78
2022/10/15 14:42:59;;;;;;;5.18;2.13;;;;;;;;;;4994000;28;20054;-79
2022/10/15 14:45:27;;;;;;;5.47;2.00;;;;;;;;;;4993941;28;20026;-79
2022/10/15 14:47:56;;;;;;;3.60;2.20;;;;;;;;;;4993998;28;20026;-78
2022/10/15 14:50:42;;;;;;;5.40;2.20;;;;;;;;;;4994088;28;20050;-75
2022/10/15 14:53:14;;;;;;;5.13;2.20;;;;;;;;;;4993055;28;20022;-80
2022/10/15 14:55:49;;;;;;;5.97;2.50;;;;;;;;;;4976329;28;20033;-76
2022/10/15 14:58:20;;;;;;;3.13;2.10;;;;;;;;;;4994037;28;20030;-80
2022/10/15 15:00:53;;;;;;;3.60;2.00;;;;;;;;;;4993879;28;20478;-79
2022/10/15 15:03:21;;;;;;;4.60;2.00;;;;;;;;;;4993991;28;20030;-74
2022/10/15 15:05:48;;;;;;;4.95;1.90;;;;;;;;;;4976639;28;20088;-76